sensor_id;sensor_type;location;lat;lon;timestamp;temperature;humidity
52435;DHT22;38354;52.892;6.148;2023-07-30T04:02:19;15.70;99.90
52435;DHT22;38354;52.892;6.148;2023-07-30T04:04:44;15.70;99.90
52435;DHT22;38354;52.892;6.148;2023-07-30T04:07:11;15.70;99.90
52435;DHT22;38354;52.892;6.148;2023-07-30T04:09:37;15.70;99.90
52435;DHT22;38354;52.892;6.148;2023-07-30T04:12:03;15.70;99.90
52435;DHT22;38354;52.892;6.148;2023-07-30T04:14:28;15.70;99.90
52435;DHT22;38354;52.892;6.148;2023-07-30T04:16:54;15.70;99.90
52435;DHT22;38354;52.892;6.148;2023-07-30T04:19:19;15.70;99.90
52435;DHT22;38354;52.892;6.148;2023-07-30T04:21:46;15.70;99.90
52435;DHT22;38354;52.892;6.148;2023-07-30T04:24:11;15.70;99.90
52435;DHT22;38354;52.892;6.148;2023-07-30T04:26:37;15.70;99.90
52435;DHT22;38354;52.892;6.148;2023-07-30T04:29:02;15.60;99.90
52435;DHT22;38354;52.892;6.148;2023-07-30T04:31:28;15.70;99.90
52435;DHT22;38354;52.892;6.148;2023-07-30T04:33:53;15.70;99.90
52435;DHT22;38354;52.892;6.148;2023-07-30T04:36:19;15.70;99.90
52435;DHT22;38354;52.892;6.148;2023-07-30T04:38:45;15.70;99.90
52435;DHT22;38354;52.892;6.148;2023-07-30T04:41:10;15.70;99.90
52435;DHT22;38354;52.892;6.148;2023-07-30T04:43:36;15.70;99.90
52435;DHT22;38354;52.892;6.148;2023-07-30T04:46:01;15.70;99.90
52435;DHT22;38354;52.892;6.148;2023-07-30T04:48:27;15.70;99.90
52435;DHT22;38354;52.892;6.148;2023-07-30T04:50:52;15.70;99.90
52435;DHT22;38354;52.892;6.148;2023-07-30T04:53:18;15.70;99.90
52435;DHT22;38354;52.892;6.148;2023-07-30T04:55:46;15.70;99.90
52435;DHT22;38354;52.892;6.148;2023-07-30T04:58:11;15.70;99.90
52435;DHT22;38354;52.892;6.148;2023-07-30T05:00:37;15.80;99.90
52435;DHT22;38354;52.892;6.148;2023-07-30T05:03:02;15.80;99.90
52435;DHT22;38354;52.892;6.148;2023-07-30T05:05:28;15.80;99.90
52435;DHT22;38354;52.892;6.148;2023-07-30T05:07:53;15.80;99.90
52435;DHT22;38354;52.892;6.148;2023-07-30T05:10:19;15.80;99.90
52435;DHT22;38354;52.892;6.148;2023-07-30T05:12:44;15.90;99.90
52435;DHT22;38354;52.892;6.148;2023-07-30T05:15:10;15.90;99.90
52435;DHT22;38354;52.892;6.148;2023-07-30T05:17:35;15.90;99.90
52435;DHT22;38354;52.892;6.148;2023-07-30T05:20:01;16.00;99.90
52435;DHT22;38354;52.892;6.148;2023-07-30T05:22:27;16.00;99.90
52435;DHT22;38354;52.892;6.148;2023-07-30T05:24:52;16.00;99.90
52435;DHT22;38354;52.892;6.148;2023-07-30T05:27:18;16.00;99.90
52435;DHT22;38354;52.892;6.148;2023-07-30T05:29:43;16.00;99.90
52435;DHT22;38354;52.892;6.148;2023-07-30T05:32:09;16.10;99.90
52435;DHT22;38354;52.892;6.148;2023-07-30T05:34:34;16.10;99.90
52435;DHT22;38354;52.892;6.148;2023-07-30T05:37:00;16.10;99.90
52435;DHT22;38354;52.892;6.148;2023-07-30T05:39:26;16.20;99.90
52435;DHT22;38354;52.892;6.148;2023-07-30T05:41:51;16.20;99.90
52435;DHT22;38354;52.892;6.148;2023-07-30T05:44:17;16.20;99.90
52435;DHT22;38354;52.892;6.148;2023-07-30T05:46:42;16.20;99.90
52435;DHT22;38354;52.892;6.148;2023-07-30T05:49:08;16.30;99.90
52435;DHT22;38354;52.892;6.148;2023-07-30T05:51:33;16.30;99.90
52435;DHT22;38354;52.892;6.148;2023-07-30T05:53:59;16.30;99.90
52435;DHT22;38354;52.892;6.148;2023-07-30T05:56:25;16.40;99.90
52435;DHT22;38354;52.892;6.148;2023-07-30T05:58:50;16.40;99.90
52435;DHT22;38354;52.892;6.148;2023-07-30T06:01:16;16.40;99.90
52435;DHT22;38354;52.892;6.148;2023-07-30T06:03:41;16.50;99.90
52435;DHT22;38354;52.892;6.148;2023-07-30T06:06:07;16.50;99.90
52435;DHT22;38354;52.892;6.148;2023-07-30T06:08:32;16.50;99.90
52435;DHT22;38354;52.892;6.148;2023-07-30T06:11:04;16.50;99.90
52435;DHT22;38354;52.892;6.148;2023-07-30T06:13:30;16.60;99.90
52435;DHT22;38354;52.892;6.148;2023-07-30T06:15:55;16.60;99.90
52435;DHT22;38354;52.892;6.148;2023-07-30T06:18:21;16.60;99.90
52435;DHT22;38354;52.892;6.148;2023-07-30T06:20:46;16.60;99.90
52435;DHT22;38354;52.892;6.148;2023-07-30T06:23:12;16.70;99.90
52435;DHT22;38354;52.892;6.148;2023-07-30T06:25:37;16.70;99.90
52435;DHT22;38354;52.892;6.148;2023-07-30T06:28:04;16.70;99.90
52435;DHT22;38354;52.892;6.148;2023-07-30T06:30:29;16.80;99.90
52435;DHT22;38354;52.892;6.148;2023-07-30T06:32:55;16.80;99.90
52435;DHT22;38354;52.892;6.148;2023-07-30T06:35:21;16.80;99.90
52435;DHT22;38354;52.892;6.148;2023-07-30T06:37:46;16.80;99.90
52435;DHT22;38354;52.892;6.148;2023-07-30T06:40:12;16.90;99.90
52435;DHT22;38354;52.892;6.148;2023-07-30T06:42:37;16.90;99.90
52435;DHT22;38354;52.892;6.148;2023-07-30T06:45:03;17.00;99.90
52435;DHT22;38354;52.892;6.148;2023-07-30T06:47:28;17.00;99.90
52435;DHT22;38354;52.892;6.148;2023-07-30T06:49:54;17.10;99.90
52435;DHT22;38354;52.892;6.148;2023-07-30T06:52:19;17.20;99.90
52435;DHT22;38354;52.892;6.148;2023-07-30T06:54:45;17.20;99.90
52435;DHT22;38354;52.892;6.148;2023-07-30T06:57:11;17.20;99.90
52435;DHT22;38354;52.892;6.148;2023-07-30T06:59:36;17.30;99.90
52435;DHT22;38354;52.892;6.148;2023-07-30T07:02:02;17.30;99.90
52435;DHT22;38354;52.892;6.148;2023-07-30T07:04:27;17.30;99.90
52435;DHT22;38354;52.892;6.148;2023-07-30T07:06:53;17.30;99.90
52435;DHT22;38354;52.892;6.148;2023-07-30T07:09:18;17.30;99.90
52435;DHT22;38354;52.892;6.148;2023-07-30T07:11:44;17.30;99.90
52435;DHT22;38354;52.892;6.148;2023-07-30T07:14:10;17.40;99.90
52435;DHT22;38354;52.892;6.148;2023-07-30T07:16:35;17.40;99.90
52435;DHT22;38354;52.892;6.148;2023-07-30T07:19:01;17.40;99.90
52435;DHT22;38354;52.892;6.148;2023-07-30T07:21:27;17.50;99.90
52435;DHT22;38354;52.892;6.148;2023-07-30T07:23:52;17.50;99.90
52435;DHT22;38354;52.892;6.148;2023-07-30T07:26:18;17.50;99.90
52435;DHT22;38354;52.892;6.148;2023-07-30T07:28:43;17.60;99.90
52435;DHT22;38354;52.892;6.148;2023-07-30T07:31:09;17.60;99.90
52435;DHT22;38354;52.892;6.148;2023-07-30T07:33:34;17.70;99.90
52435;DHT22;38354;52.892;6.148;2023-07-30T07:36:03;17.70;99.90
52435;DHT22;38354;52.892;6.148;2023-07-30T07:38:29;17.70;99.90
52435;DHT22;38354;52.892;6.148;2023-07-30T07:40:55;17.70;99.90
52435;DHT22;38354;52.892;6.148;2023-07-30T07:43:20;17.60;99.90
52435;DHT22;38354;52.892;6.148;2023-07-30T07:45:46;17.50;99.90
52435;DHT22;38354;52.892;6.148;2023-07-30T07:48:11;17.50;99.90
52435;DHT22;38354;52.892;6.148;2023-07-30T07:50:37;17.20;99.90
52435;DHT22;38354;52.892;6.148;2023-07-30T07:53:02;17.00;99.90
52435;DHT22;38354;52.892;6.148;2023-07-30T07:55:28;16.90;99.90
52435;DHT22;38354;52.892;6.148;2023-07-30T07:57:53;16.70;99.90
52435;DHT22;38354;52.892;6.148;2023-07-30T08:00:19;16.60;99.90
52435;DHT22;38354;52.892;6.148;2023-07-30T08:02:45;16.50;99.90
52435;DHT22;38354;52.892;6.148;2023-07-30T08:05:10;16.40;99.90
52435;DHT22;38354;52.892;6.148;2023-07-30T08:07:36;16.40;99.90
52435;DHT22;38354;52.892;6.148;2023-07-30T08:10:01;16.30;99.90
52435;DHT22;38354;52.892;6.148;2023-07-30T08:12:27;16.30;99.90
52435;DHT22;38354;52.892;6.148;2023-07-30T08:14:53;16.30;99.90
52435;DHT22;38354;52.892;6.148;2023-07-30T08:17:18;16.30;99.90
52435;DHT22;38354;52.892;6.148;2023-07-30T08:19:44;16.30;99.90
52435;DHT22;38354;52.892;6.148;2023-07-30T08:22:09;16.30;99.90
52435;DHT22;38354;52.892;6.148;2023-07-30T08:24:35;16.30;99.90
52435;DHT22;38354;52.892;6.148;2023-07-30T08:27:01;16.30;99.90
52435;DHT22;38354;52.892;6.148;2023-07-30T08:29:27;16.30;99.90
52435;DHT22;38354;52.892;6.148;2023-07-30T08:31:52;16.30;99.90
52435;DHT22;38354;52.892;6.148;2023-07-30T08:34:18;16.30;99.90
52435;DHT22;38354;52.892;6.148;2023-07-30T08:36:43;16.30;99.90
52435;DHT22;38354;52.892;6.148;2023-07-30T08:39:09;16.30;99.90
52435;DHT22;38354;52.892;6.148;2023-07-30T08:41:35;16.40;99.90
52435;DHT22;38354;52.892;6.148;2023-07-30T08:44:00;16.40;99.90
52435;DHT22;38354;52.892;6.148;2023-07-30T08:46:27;16.40;99.90
52435;DHT22;38354;52.892;6.148;2023-07-30T08:48:52;16.40;99.90
52435;DHT22;38354;52.892;6.148;2023-07-30T08:51:19;16.30;99.90
52435;DHT22;38354;52.892;6.148;2023-07-30T08:53:44;16.30;99.90
52435;DHT22;38354;52.892;6.148;2023-07-30T08:56:10;16.20;99.90
52435;DHT22;38354;52.892;6.148;2023-07-30T08:58:36;16.10;99.90
52435;DHT22;38354;52.892;6.148;2023-07-30T09:01:03;15.90;99.90
52435;DHT22;38354;52.892;6.148;2023-07-30T09:03:30;15.80;99.90
52435;DHT22;38354;52.892;6.148;2023-07-30T09:05:57;15.50;99.90
52435;DHT22;38354;52.892;6.148;2023-07-30T09:08:23;15.30;99.90
52435;DHT22;38354;52.892;6.148;2023-07-30T09:10:49;15.10;99.90
52435;DHT22;38354;52.892;6.148;2023-07-30T09:13:20;15.10;99.90
52435;DHT22;38354;52.892;6.148;2023-07-30T09:15:47;15.10;99.90
52435;DHT22;38354;52.892;6.148;2023-07-30T09:18:13;15.10;99.90
52435;DHT22;38354;52.892;6.148;2023-07-30T09:20:41;15.20;99.90
52435;DHT22;38354;52.892;6.148;2023-07-30T09:23:07;15.20;99.90
52435;DHT22;38354;52.892;6.148;2023-07-30T09:25:34;15.30;99.90
52435;DHT22;38354;52.892;6.148;2023-07-30T09:27:59;15.30;99.90
52435;DHT22;38354;52.892;6.148;2023-07-30T09:30:25;15.30;99.90
52435;DHT22;38354;52.892;6.148;2023-07-30T09:32:53;15.40;99.90
52435;DHT22;38354;52.892;6.148;2023-07-30T09:35:19;15.40;99.90
52435;DHT22;38354;52.892;6.148;2023-07-30T09:37:45;15.40;99.90
52435;DHT22;38354;52.892;6.148;2023-07-30T09:40:11;15.50;99.90
52435;DHT22;38354;52.892;6.148;2023-07-30T09:42:38;15.50;99.90
52435;DHT22;38354;52.892;6.148;2023-07-30T09:45:05;15.60;99.90
52435;DHT22;38354;52.892;6.148;2023-07-30T09:47:32;15.60;99.90
52435;DHT22;38354;52.892;6.148;2023-07-30T09:49:59;15.70;99.90
52435;DHT22;38354;52.892;6.148;2023-07-30T09:52:24;15.80;99.90
52435;DHT22;38354;52.892;6.148;2023-07-30T09:54:50;16.00;99.90
52435;DHT22;38354;52.892;6.148;2023-07-30T09:57:17;16.30;99.90
52435;DHT22;38354;52.892;6.148;2023-07-30T09:59:43;16.50;99.90
52435;DHT22;38354;52.892;6.148;2023-07-30T10:02:08;16.70;99.90
52435;DHT22;38354;52.892;6.148;2023-07-30T10:04:35;16.70;99.90
52435;DHT22;38354;52.892;6.148;2023-07-30T10:07:10;16.90;99.90
52435;DHT22;38354;52.892;6.148;2023-07-30T10:09:39;17.00;99.90
52435;DHT22;38354;52.892;6.148;2023-07-30T10:12:23;17.20;99.90
52435;DHT22;38354;52.892;6.148;2023-07-30T10:14:49;17.30;99.90
52435;DHT22;38354;52.892;6.148;2023-07-30T10:17:16;17.40;99.90
52435;DHT22;38354;52.892;6.148;2023-07-30T10:19:43;17.40;99.90
52435;DHT22;38354;52.892;6.148;2023-07-30T10:27:44;17.30;99.90
52435;DHT22;38354;52.892;6.148;2023-07-30T10:30:18;17.20;99.90
52435;DHT22;38354;52.892;6.148;2023-07-30T10:35:41;17.10;99.90
52435;DHT22;38354;52.892;6.148;2023-07-30T10:38:14;17.10;99.90
52435;DHT22;38354;52.892;6.148;2023-07-30T10:40:40;17.30;99.90
52435;DHT22;38354;52.892;6.148;2023-07-30T10:43:15;17.60;99.90
52435;DHT22;38354;52.892;6.148;2023-07-30T10:45:48;17.70;99.90
52435;DHT22;38354;52.892;6.148;2023-07-30T10:48:13;17.90;99.90
52435;DHT22;38354;52.892;6.148;2023-07-30T10:50:39;18.20;99.90
52435;DHT22;38354;52.892;6.148;2023-07-30T10:53:07;18.50;99.90
52435;DHT22;38354;52.892;6.148;2023-07-30T10:55:33;18.70;99.90
52435;DHT22;38354;52.892;6.148;2023-07-30T10:57:59;18.80;99.90
52435;DHT22;38354;52.892;6.148;2023-07-30T11:00:25;18.80;99.90
52435;DHT22;38354;52.892;6.148;2023-07-30T11:02:54;18.90;99.90
52435;DHT22;38354;52.892;6.148;2023-07-30T11:05:19;18.90;99.90
52435;DHT22;38354;52.892;6.148;2023-07-30T11:07:51;19.00;99.90
52435;DHT22;38354;52.892;6.148;2023-07-30T11:10:17;18.80;99.90
52435;DHT22;38354;52.892;6.148;2023-07-30T11:12:43;18.80;99.90
52435;DHT22;38354;52.892;6.148;2023-07-30T11:15:09;18.70;99.90
52435;DHT22;38354;52.892;6.148;2023-07-30T11:17:35;18.60;99.90
52435;DHT22;38354;52.892;6.148;2023-07-30T11:20:00;18.50;99.90
52435;DHT22;38354;52.892;6.148;2023-07-30T11:22:32;18.50;99.90
52435;DHT22;38354;52.892;6.148;2023-07-30T11:24:58;18.50;99.90
52435;DHT22;38354;52.892;6.148;2023-07-30T11:27:24;18.50;99.90
52435;DHT22;38354;52.892;6.148;2023-07-30T11:29:56;18.80;99.90
52435;DHT22;38354;52.892;6.148;2023-07-30T11:32:21;18.80;99.90
52435;DHT22;38354;52.892;6.148;2023-07-30T11:34:51;18.80;99.90
52435;DHT22;38354;52.892;6.148;2023-07-30T11:37:16;18.70;99.90
52435;DHT22;38354;52.892;6.148;2023-07-30T11:39:42;18.60;99.90
52435;DHT22;38354;52.892;6.148;2023-07-30T11:42:07;18.50;99.90
52435;DHT22;38354;52.892;6.148;2023-07-30T11:44:37;18.30;99.90
52435;DHT22;38354;52.892;6.148;2023-07-30T11:47:06;18.30;99.90
52435;DHT22;38354;52.892;6.148;2023-07-30T11:49:31;18.10;99.90
52435;DHT22;38354;52.892;6.148;2023-07-30T11:52:10;17.80;99.90
52435;DHT22;38354;52.892;6.148;2023-07-30T11:54:36;17.40;99.90
52435;DHT22;38354;52.892;6.148;2023-07-30T11:57:01;17.20;99.90
52435;DHT22;38354;52.892;6.148;2023-07-30T11:59:27;16.90;99.90
52435;DHT22;38354;52.892;6.148;2023-07-30T12:01:53;16.80;99.90
52435;DHT22;38354;52.892;6.148;2023-07-30T12:04:18;16.90;99.90
52435;DHT22;38354;52.892;6.148;2023-07-30T12:06:48;16.90;99.90
52435;DHT22;38354;52.892;6.148;2023-07-30T12:09:14;16.90;99.90
52435;DHT22;38354;52.892;6.148;2023-07-30T12:14:19;16.90;99.90
52435;DHT22;38354;52.892;6.148;2023-07-30T12:16:44;16.90;99.90
52435;DHT22;38354;52.892;6.148;2023-07-30T12:19:10;16.90;99.90
52435;DHT22;38354;52.892;6.148;2023-07-30T12:21:36;16.90;99.90
52435;DHT22;38354;52.892;6.148;2023-07-30T12:24:01;16.90;99.90
52435;DHT22;38354;52.892;6.148;2023-07-30T12:26:27;16.80;99.90
52435;DHT22;38354;52.892;6.148;2023-07-30T12:28:53;16.60;99.90
52435;DHT22;38354;52.892;6.148;2023-07-30T12:31:18;16.50;99.90
52435;DHT22;38354;52.892;6.148;2023-07-30T12:33:44;16.50;99.90
52435;DHT22;38354;52.892;6.148;2023-07-30T12:36:09;16.50;99.90
52435;DHT22;38354;52.892;6.148;2023-07-30T12:38:35;16.60;99.90
52435;DHT22;38354;52.892;6.148;2023-07-30T12:41:00;16.80;99.90
52435;DHT22;38354;52.892;6.148;2023-07-30T12:43:26;17.10;99.90
52435;DHT22;38354;52.892;6.148;2023-07-30T12:45:52;17.20;99.90
52435;DHT22;38354;52.892;6.148;2023-07-30T12:48:17;17.30;99.90
52435;DHT22;38354;52.892;6.148;2023-07-30T12:50:43;17.40;99.90
52435;DHT22;38354;52.892;6.148;2023-07-30T12:53:08;17.60;99.90
52435;DHT22;38354;52.892;6.148;2023-07-30T12:55:34;17.90;99.90
52435;DHT22;38354;52.892;6.148;2023-07-30T12:57:59;18.00;99.90
52435;DHT22;38354;52.892;6.148;2023-07-30T13:00:25;18.00;99.90
52435;DHT22;38354;52.892;6.148;2023-07-30T13:02:50;18.10;99.90
52435;DHT22;38354;52.892;6.148;2023-07-30T13:05:20;18.20;99.90
52435;DHT22;38354;52.892;6.148;2023-07-30T13:07:46;18.10;99.90
52435;DHT22;38354;52.892;6.148;2023-07-30T13:10:12;18.00;99.90
52435;DHT22;38354;52.892;6.148;2023-07-30T13:12:37;18.00;99.90
52435;DHT22;38354;52.892;6.148;2023-07-30T13:15:03;17.90;99.90
52435;DHT22;38354;52.892;6.148;2023-07-30T13:17:29;17.90;99.90
52435;DHT22;38354;52.892;6.148;2023-07-30T13:19:54;18.00;99.90
52435;DHT22;38354;52.892;6.148;2023-07-30T13:22:20;18.10;99.90
52435;DHT22;38354;52.892;6.148;2023-07-30T13:24:45;18.40;99.90
52435;DHT22;38354;52.892;6.148;2023-07-30T13:27:11;18.60;99.90
52435;DHT22;38354;52.892;6.148;2023-07-30T13:29:36;18.90;99.90
52435;DHT22;38354;52.892;6.148;2023-07-30T13:32:02;18.80;99.90
52435;DHT22;38354;52.892;6.148;2023-07-30T13:34:27;18.80;99.90
52435;DHT22;38354;52.892;6.148;2023-07-30T13:36:53;18.70;99.90
52435;DHT22;38354;52.892;6.148;2023-07-30T13:39:19;18.60;99.90
52435;DHT22;38354;52.892;6.148;2023-07-30T13:41:45;18.50;99.90
52435;DHT22;38354;52.892;6.148;2023-07-30T13:44:10;18.30;99.90
52435;DHT22;38354;52.892;6.148;2023-07-30T13:46:39;18.30;99.90
52435;DHT22;38354;52.892;6.148;2023-07-30T13:49:06;18.30;99.90
52435;DHT22;38354;52.892;6.148;2023-07-30T13:51:31;18.30;99.90
52435;DHT22;38354;52.892;6.148;2023-07-30T13:54:00;18.50;99.90
52435;DHT22;38354;52.892;6.148;2023-07-30T13:56:27;18.60;99.90
52435;DHT22;38354;52.892;6.148;2023-07-30T13:58:52;18.80;99.90
52435;DHT22;38354;52.892;6.148;2023-07-30T14:01:18;18.50;99.90
52435;DHT22;38354;52.892;6.148;2023-07-30T14:03:43;18.50;99.90
52435;DHT22;38354;52.892;6.148;2023-07-30T14:06:10;18.40;99.90
52435;DHT22;38354;52.892;6.148;2023-07-30T14:08:35;18.30;99.90
52435;DHT22;38354;52.892;6.148;2023-07-30T14:11:01;18.30;99.90
52435;DHT22;38354;52.892;6.148;2023-07-30T14:13:26;18.20;99.90
52435;DHT22;38354;52.892;6.148;2023-07-30T14:15:52;18.10;99.90
52435;DHT22;38354;52.892;6.148;2023-07-30T14:18:18;18.10;99.90
52435;DHT22;38354;52.892;6.148;2023-07-30T14:20:43;17.70;99.90
52435;DHT22;38354;52.892;6.148;2023-07-30T14:23:09;17.30;99.90
52435;DHT22;38354;52.892;6.148;2023-07-30T14:25:37;16.90;99.90
52435;DHT22;38354;52.892;6.148;2023-07-30T14:28:02;16.90;99.90
52435;DHT22;38354;52.892;6.148;2023-07-30T14:30:28;16.90;99.90
52435;DHT22;38354;52.892;6.148;2023-07-30T14:32:54;16.90;99.90
52435;DHT22;38354;52.892;6.148;2023-07-30T14:35:20;16.90;99.90
52435;DHT22;38354;52.892;6.148;2023-07-30T14:37:45;17.00;99.90
52435;DHT22;38354;52.892;6.148;2023-07-30T14:40:11;17.10;99.90
52435;DHT22;38354;52.892;6.148;2023-07-30T14:42:36;17.10;99.90
52435;DHT22;38354;52.892;6.148;2023-07-30T14:45:02;17.20;99.90
52435;DHT22;38354;52.892;6.148;2023-07-30T14:47:27;17.10;99.90
52435;DHT22;38354;52.892;6.148;2023-07-30T14:49:53;17.10;99.90
52435;DHT22;38354;52.892;6.148;2023-07-30T14:52:19;17.10;99.90
52435;DHT22;38354;52.892;6.148;2023-07-30T14:54:45;17.00;99.90
52435;DHT22;38354;52.892;6.148;2023-07-30T14:57:11;16.90;99.90
52435;DHT22;38354;52.892;6.148;2023-07-30T14:59:36;16.90;99.90
52435;DHT22;38354;52.892;6.148;2023-07-30T15:02:02;17.00;99.90
52435;DHT22;38354;52.892;6.148;2023-07-30T15:04:28;17.00;99.90
52435;DHT22;38354;52.892;6.148;2023-07-30T15:06:55;17.10;99.90
52435;DHT22;38354;52.892;6.148;2023-07-30T15:09:21;17.30;99.90
52435;DHT22;38354;52.892;6.148;2023-07-30T15:11:46;17.40;99.90
52435;DHT22;38354;52.892;6.148;2023-07-30T15:14:12;17.50;99.90
52435;DHT22;38354;52.892;6.148;2023-07-30T15:16:37;17.60;99.90
52435;DHT22;38354;52.892;6.148;2023-07-30T15:19:03;17.80;99.90
52435;DHT22;38354;52.892;6.148;2023-07-30T15:21:30;17.90;99.90
52435;DHT22;38354;52.892;6.148;2023-07-30T15:23:56;18.10;99.90
52435;DHT22;38354;52.892;6.148;2023-07-30T15:26:23;18.50;99.90
52435;DHT22;38354;52.892;6.148;2023-07-30T15:28:49;18.60;99.90
52435;DHT22;38354;52.892;6.148;2023-07-30T15:31:14;18.70;99.90
52435;DHT22;38354;52.892;6.148;2023-07-30T15:33:40;18.70;99.90
52435;DHT22;38354;52.892;6.148;2023-07-30T15:36:05;18.90;99.90
52435;DHT22;38354;52.892;6.148;2023-07-30T15:38:32;19.00;99.90
52435;DHT22;38354;52.892;6.148;2023-07-30T15:40:58;19.10;99.90
52435;DHT22;38354;52.892;6.148;2023-07-30T15:43:23;19.10;99.90
52435;DHT22;38354;52.892;6.148;2023-07-30T15:45:51;19.00;99.90
52435;DHT22;38354;52.892;6.148;2023-07-30T15:48:18;18.80;99.90
52435;DHT22;38354;52.892;6.148;2023-07-30T15:50:43;18.80;99.90
52435;DHT22;38354;52.892;6.148;2023-07-30T15:53:09;19.00;99.90
52435;DHT22;38354;52.892;6.148;2023-07-30T15:55:35;19.00;99.90
52435;DHT22;38354;52.892;6.148;2023-07-30T15:58:00;18.90;99.90
52435;DHT22;38354;52.892;6.148;2023-07-30T16:00:26;18.90;99.90
52435;DHT22;38354;52.892;6.148;2023-07-30T16:02:51;18.90;99.90
52435;DHT22;38354;52.892;6.148;2023-07-30T16:05:17;18.90;99.90
52435;DHT22;38354;52.892;6.148;2023-07-30T16:07:42;18.80;99.90
52435;DHT22;38354;52.892;6.148;2023-07-30T16:10:08;18.80;99.90
52435;DHT22;38354;52.892;6.148;2023-07-30T16:12:34;18.80;99.90
52435;DHT22;38354;52.892;6.148;2023-07-30T16:14:59;18.80;99.90
52435;DHT22;38354;52.892;6.148;2023-07-30T16:17:25;18.80;99.90
52435;DHT22;38354;52.892;6.148;2023-07-30T16:19:51;18.80;99.90
52435;DHT22;38354;52.892;6.148;2023-07-30T16:22:16;18.90;99.90
52435;DHT22;38354;52.892;6.148;2023-07-30T16:24:42;18.80;99.90
52435;DHT22;38354;52.892;6.148;2023-07-30T16:27:09;18.80;99.90
52435;DHT22;38354;52.892;6.148;2023-07-30T16:29:35;18.70;99.90
52435;DHT22;38354;52.892;6.148;2023-07-30T16:32:04;18.80;99.90
52435;DHT22;38354;52.892;6.148;2023-07-30T16:34:30;18.80;99.90
52435;DHT22;38354;52.892;6.148;2023-07-30T16:36:55;18.80;99.90
52435;DHT22;38354;52.892;6.148;2023-07-30T16:39:22;18.80;99.90
52435;DHT22;38354;52.892;6.148;2023-07-30T16:41:47;18.80;99.90
52435;DHT22;38354;52.892;6.148;2023-07-30T16:44:13;18.80;99.90
52435;DHT22;38354;52.892;6.148;2023-07-30T16:46:40;18.80;99.90
52435;DHT22;38354;52.892;6.148;2023-07-30T16:49:06;18.80;99.90
52435;DHT22;38354;52.892;6.148;2023-07-30T16:51:33;18.70;99.90
52435;DHT22;38354;52.892;6.148;2023-07-30T16:53:58;18.70;99.90
52435;DHT22;38354;52.892;6.148;2023-07-30T16:56:24;18.70;99.90
52435;DHT22;38354;52.892;6.148;2023-07-30T16:58:49;18.70;99.90
52435;DHT22;38354;52.892;6.148;2023-07-30T17:01:15;18.60;99.90
52435;DHT22;38354;52.892;6.148;2023-07-30T17:03:41;18.70;99.90
52435;DHT22;38354;52.892;6.148;2023-07-30T17:06:06;18.70;99.90
52435;DHT22;38354;52.892;6.148;2023-07-30T17:08:32;18.60;99.90
52435;DHT22;38354;52.892;6.148;2023-07-30T17:11:02;18.60;99.90
52435;DHT22;38354;52.892;6.148;2023-07-30T17:13:28;18.60;99.90
52435;DHT22;38354;52.892;6.148;2023-07-30T17:15:55;18.60;99.90
52435;DHT22;38354;52.892;6.148;2023-07-30T17:18:21;18.60;99.90
52435;DHT22;38354;52.892;6.148;2023-07-30T17:20:56;18.60;99.90
52435;DHT22;38354;52.892;6.148;2023-07-30T17:23:25;18.60;99.90
52435;DHT22;38354;52.892;6.148;2023-07-30T17:25:51;18.50;99.90
52435;DHT22;38354;52.892;6.148;2023-07-30T17:28:16;18.50;99.90
52435;DHT22;38354;52.892;6.148;2023-07-30T17:30:42;18.50;99.90
52435;DHT22;38354;52.892;6.148;2023-07-30T17:33:07;18.50;99.90
52435;DHT22;38354;52.892;6.148;2023-07-30T17:35:33;18.40;99.90
52435;DHT22;38354;52.892;6.148;2023-07-30T17:37:58;18.50;99.90
52435;DHT22;38354;52.892;6.148;2023-07-30T17:40:24;18.40;99.90
52435;DHT22;38354;52.892;6.148;2023-07-30T17:42:51;18.50;99.90
52435;DHT22;38354;52.892;6.148;2023-07-30T17:45:17;18.40;99.90
52435;DHT22;38354;52.892;6.148;2023-07-30T17:47:43;18.40;99.90
52435;DHT22;38354;52.892;6.148;2023-07-30T17:50:08;18.40;99.90
52435;DHT22;38354;52.892;6.148;2023-07-30T17:52:34;18.40;99.90
52435;DHT22;38354;52.892;6.148;2023-07-30T17:54:59;18.40;99.90
52435;DHT22;38354;52.892;6.148;2023-07-30T17:57:25;18.40;99.90
52435;DHT22;38354;52.892;6.148;2023-07-30T17:59:50;18.40;99.90
52435;DHT22;38354;52.892;6.148;2023-07-30T18:02:16;18.40;99.90
52435;DHT22;38354;52.892;6.148;2023-07-30T18:04:43;18.40;99.90
52435;DHT22;38354;52.892;6.148;2023-07-30T18:07:09;18.40;99.90
52435;DHT22;38354;52.892;6.148;2023-07-30T18:09:34;18.40;99.90
52435;DHT22;38354;52.892;6.148;2023-07-30T18:12:00;18.40;99.90
52435;DHT22;38354;52.892;6.148;2023-07-30T18:14:26;18.40;99.90
52435;DHT22;38354;52.892;6.148;2023-07-30T18:16:51;18.40;99.90
52435;DHT22;38354;52.892;6.148;2023-07-30T18:19:17;18.40;99.90
52435;DHT22;38354;52.892;6.148;2023-07-30T18:21:42;18.40;99.90
52435;DHT22;38354;52.892;6.148;2023-07-30T18:24:08;18.40;99.90
52435;DHT22;38354;52.892;6.148;2023-07-30T18:26:33;18.40;99.90
52435;DHT22;38354;52.892;6.148;2023-07-30T18:28:59;18.30;99.90
52435;DHT22;38354;52.892;6.148;2023-07-30T18:31:24;18.30;99.90
52435;DHT22;38354;52.892;6.148;2023-07-30T18:33:50;18.30;99.90
52435;DHT22;38354;52.892;6.148;2023-07-30T18:36:15;18.30;99.90
52435;DHT22;38354;52.892;6.148;2023-07-30T18:38:41;18.30;99.90
52435;DHT22;38354;52.892;6.148;2023-07-30T18:41:06;18.20;99.90
52435;DHT22;38354;52.892;6.148;2023-07-30T18:43:33;18.20;99.90
52435;DHT22;38354;52.892;6.148;2023-07-30T18:45:58;18.20;99.90
52435;DHT22;38354;52.892;6.148;2023-07-30T18:48:24;18.20;99.90
52435;DHT22;38354;52.892;6.148;2023-07-30T18:50:50;18.20;99.90
52435;DHT22;38354;52.892;6.148;2023-07-30T18:53:15;18.20;99.90
52435;DHT22;38354;52.892;6.148;2023-07-30T18:55:41;18.10;99.90
52435;DHT22;38354;52.892;6.148;2023-07-30T18:58:07;18.10;99.90
52435;DHT22;38354;52.892;6.148;2023-07-30T19:00:33;18.10;99.90
52435;DHT22;38354;52.892;6.148;2023-07-30T19:02:58;18.00;99.90
52435;DHT22;38354;52.892;6.148;2023-07-30T19:05:24;18.00;99.90
52435;DHT22;38354;52.892;6.148;2023-07-30T19:07:49;18.00;99.90
52435;DHT22;38354;52.892;6.148;2023-07-30T19:10:15;18.00;99.90
52435;DHT22;38354;52.892;6.148;2023-07-30T19:12:41;18.00;99.90
52435;DHT22;38354;52.892;6.148;2023-07-30T19:15:07;18.00;99.90
52435;DHT22;38354;52.892;6.148;2023-07-30T19:17:32;18.00;99.90
52435;DHT22;38354;52.892;6.148;2023-07-30T19:19:58;17.90;99.90
52435;DHT22;38354;52.892;6.148;2023-07-30T19:22:23;18.00;99.90
52435;DHT22;38354;52.892;6.148;2023-07-30T19:24:49;17.90;99.90
52435;DHT22;38354;52.892;6.148;2023-07-30T19:27:15;17.90;99.90
52435;DHT22;38354;52.892;6.148;2023-07-30T19:29:40;17.80;99.90
52435;DHT22;38354;52.892;6.148;2023-07-30T19:32:06;17.80;99.90
52435;DHT22;38354;52.892;6.148;2023-07-30T19:34:31;17.90;99.90